Time;durP1;ratioP1;P1;durP2;ratioP2;P2;SDS_P1;SDS_P2;PMS_P1;PMS_P2;Temp;Humidity;BMP_temperature;BMP_pressure;BME280_temperature;BME280_humidity;BME280_pressure;Samples;Min_cycle;Max_cycle;Signal;HPM_P1;HPM_P2
2023/01/12 00:02:21;;;;;;;2.13;1.48;;;;;;;9.39;100.00;100360.16;5009413;28;20579;-79
2023/01/12 00:04:49;;;;;;;2.70;1.40;;;;;;;9.31;100.00;100362.53;5008145;28;20053;-81
2023/01/12 00:07:19;;;;;;;2.75;1.48;;;;;;;9.31;100.00;100367.72;5004176;28;20069;-79
2023/01/12 00:09:47;;;;;;;4.03;2.22;;;;;;;9.28;100.00;100359.00;5004444;28;20554;-78
2023/01/12 00:12:16;;;;;;;8.35;2.95;;;;;;;9.23;100.00;100356.28;5004499;28;20632;-81
2023/01/12 00:14:44;;;;;;;3.13;1.88;;;;;;;9.17;100.00;100343.22;5008543;28;20108;-79
2023/01/12 00:17:16;;;;;;;4.47;2.28;;;;;;;9.25;100.00;100346.00;5007286;28;20077;-79
2023/01/12 00:19:46;;;;;;;4.53;1.90;;;;;;;9.25;100.00;100339.13;5007766;28;20046;-77
2023/01/12 00:22:18;;;;;;;4.10;1.83;;;;;;;9.24;100.00;100334.81;5010293;28;20042;-80
2023/01/12 00:24:48;;;;;;;2.03;1.60;;;;;;;9.25;100.00;100338.25;5005483;28;20096;-79
2023/01/12 00:27:19;;;;;;;7.22;1.45;;;;;;;9.26;100.00;100338.31;5008662;28;20057;-78
2023/01/12 00:29:47;;;;;;;2.53;1.50;;;;;;;9.27;100.00;100340.03;5010017;28;20686;-77
2023/01/12 00:32:17;;;;;;;5.80;2.13;;;;;;;9.26;100.00;100337.44;5009890;28;20511;-79
2023/01/12 00:34:48;;;;;;;5.00;2.13;;;;;;;9.26;100.00;100327.97;5007820;28;20447;-79
2023/01/12 00:37:19;;;;;;;4.05;1.55;;;;;;;9.27;100.00;100332.31;5010232;28;20054;-83
2023/01/12 00:39:48;;;;;;;2.03;1.20;;;;;;;9.27;100.00;100329.72;5008216;28;20084;-85
2023/01/12 00:47:47;;;;;;;4.28;2.40;;;;;;;9.15;100.00;100375.84;5006051;28;20057;-84
2023/01/12 00:50:18;;;;;;;6.00;2.83;;;;;;;9.12;100.00;100381.81;5009846;28;20096;-85
2023/01/12 00:52:46;;;;;;;5.00;1.98;;;;;;;9.10;100.00;100380.00;5011056;28;20136;-83
2023/01/12 00:55:15;;;;;;;6.50;2.75;;;;;;;8.98;100.00;100372.78;5008350;28;20054;-82
2023/01/12 00:57:44;;;;;;;6.35;2.92;;;;;;;8.91;100.00;100366.56;5009978;28;20048;-80
2023/01/12 01:00:13;;;;;;;4.15;1.80;;;;;;;8.83;100.00;100380.06;5011858;28;20042;-81
2023/01/12 01:02:43;;;;;;;2.60;1.55;;;;;;;8.75;100.00;100379.81;5012061;28;20045;-84
2023/01/12 01:05:11;;;;;;;2.63;1.60;;;;;;;8.73;100.00;100378.91;5012062;28;20081;-79
2023/01/12 01:07:42;;;;;;;3.45;1.52;;;;;;;8.73;100.00;100386.66;5006041;28;20054;-80
2023/01/12 01:10:12;;;;;;;3.13;1.10;;;;;;;8.70;100.00;100392.56;5008814;28;20050;-83
2023/01/12 01:12:40;;;;;;;5.13;1.55;;;;;;;8.70;100.00;100396.84;5015428;28;20045;-81
2023/01/12 01:15:10;;;;;;;1.60;1.05;;;;;;;8.72;100.00;100393.47;5010703;28;20052;-86
2023/01/12 01:17:38;;;;;;;1.92;1.15;;;;;;;8.75;100.00;100398.75;5008982;28;20696;-81
2023/01/12 01:20:07;;;;;;;1.90;1.38;;;;;;;8.78;100.00;100400.56;5009870;28;20042;-79
2023/01/12 01:22:36;;;;;;;2.60;1.40;;;;;;;8.81;100.00;100398.94;5010240;28;20057;-78
2023/01/12 01:25:11;;;;;;;3.60;1.50;;;;;;;8.81;100.00;100404.09;5008233;28;20666;-80
2023/01/12 01:27:39;;;;;;;4.60;1.52;;;;;;;8.84;100.00;100405.88;5010294;28;20060;-77
2023/01/12 01:30:09;;;;;;;3.38;1.70;;;;;;;8.87;100.00;100424.06;5006580;28;20044;-82
2023/01/12 01:32:38;;;;;;;4.07;1.70;;;;;;;8.89;100.00;100424.97;5009272;28;20526;-81
2023/01/12 01:35:07;;;;;;;3.45;1.58;;;;;;;8.90;100.00;100428.44;5008266;28;20046;-81
2023/01/12 01:37:36;;;;;;;4.55;1.70;;;;;;;8.92;100.00;100419.91;5007391;28;20054;-85
2023/01/12 01:40:07;;;;;;;4.53;2.05;;;;;;;8.95;100.00;100411.38;5008413;28;20049;-86
2023/01/12 01:42:35;;;;;;;4.70;2.53;;;;;;;8.97;100.00;100422.63;5006257;28;20050;-80
2023/01/12 01:45:05;;;;;;;4.57;2.20;;;;;;;8.97;100.00;100428.66;5006188;28;20065;-84
2023/01/12 01:47:39;;;;;;;5.53;2.70;;;;;;;8.98;100.00;100430.44;5007807;28;20062;-84
2023/01/12 01:50:18;;;;;;;6.28;2.60;;;;;;;8.99;100.00;100427.00;5007776;28;20049;-84
2023/01/12 01:52:51;;;;;;;3.17;2.20;;;;;;;9.01;100.00;100411.56;5009063;28;20683;-82
2023/01/12 01:55:25;;;;;;;4.20;2.38;;;;;;;9.02;100.00;100409.06;5011221;28;20584;-81
2023/01/12 01:57:57;;;;;;;3.30;2.17;;;;;;;9.06;100.00;100416.88;5009406;28;20052;-81
2023/01/12 02:00:27;;;;;;;4.60;2.45;;;;;;;9.05;100.00;100416.00;5009902;28;20102;-87
2023/01/12 02:02:57;;;;;;;3.50;2.05;;;;;;;9.05;100.00;100416.00;5007300;28;20049;-84
2023/01/12 02:05:28;;;;;;;3.60;1.83;;;;;;;9.06;100.00;100416.88;5008614;28;20053;-84
2023/01/12 02:08:03;;;;;;;4.15;1.92;;;;;;;9.04;100.00;100416.81;5005947;28;20104;-85
2023/01/12 02:10:34;;;;;;;3.05;1.30;;;;;;;9.07;100.00;100409.19;5008332;28;20050;-85
2023/01/12 02:18:52;;;;;;;3.72;1.75;;;;;;;9.07;100.00;100408.28;5006136;28;20177;-79
2023/01/12 02:22:03;;;;;;;4.55;1.75;;;;;;;9.02;100.00;100401.31;5008909;28;20107;-83
2023/01/12 02:24:57;;;;;;;4.10;2.58;;;;;;;9.01;100.00;100393.50;5008734;28;20136;-80
2023/01/12 02:27:58;;;;;;;8.35;3.38;;;;;;;8.99;100.00;100382.25;5001887;28;20554;-82
2023/01/12 02:30:59;;;;;;;4.05;2.47;;;;;;;8.96;100.00;100390.78;5006009;28;20042;-84
2023/01/12 02:33:41;;;;;;;5.07;2.50;;;;;;;8.97;100.00;100392.53;4995106;28;20126;-83
2023/01/12 02:36:18;;;;;;;3.00;2.60;;;;;;;8.97;100.00;100377.03;5012777;28;20077;-83
2023/01/12 02:38:52;;;;;;;3.30;2.00;;;;;;;8.95;100.00;100357.19;5005448;28;20303;-83
2023/01/12 02:44:17;;;;;;;3.00;1.80;;;;;;;8.90;100.00;100380.28;5010603;28;20041;-83
2023/01/12 02:46:51;;;;;;;5.03;3.20;;;;;;;8.88;100.00;100379.34;5006717;28;20046;-85
2023/01/12 02:49:24;;;;;;;3.63;2.33;;;;;;;8.87;100.00;100385.34;5012127;28;20531;-85
2023/01/12 02:51:57;;;;;;;3.33;1.83;;;;;;;8.84;100.00;100382.66;5016568;28;20122;-86
2023/01/12 02:54:28;;;;;;;4.10;2.28;;;;;;;8.82;100.00;100371.44;5018068;28;20681;-83
2023/01/12 02:57:01;;;;;;;5.25;2.78;;;;;;;8.79;100.00;100376.50;5011763;28;20054;-83
2023/01/12 02:59:33;;;;;;;7.35;2.63;;;;;;;8.83;100.00;100383.50;5010831;28;20054;-84
2023/01/12 03:02:07;;;;;;;4.85;2.35;;;;;;;8.85;100.00;100387.00;5008015;28;20056;-82
2023/01/12 03:04:37;;;;;;;3.90;2.13;;;;;;;8.88;100.00;100387.09;5010333;28;20058;-83
2023/01/12 03:07:38;;;;;;;5.68;2.35;;;;;;;8.90;100.00;100388.03;5000267;28;20046;-84
2023/01/12 03:10:21;;;;;;;2.45;1.45;;;;;;;8.94;100.00;100392.44;5009065;28;20502;-85
2023/01/12 03:12:51;;;;;;;3.70;1.73;;;;;;;8.94;100.00;100392.44;5009000;28;20510;-81
2023/01/12 03:15:22;;;;;;;3.05;1.50;;;;;;;8.95;100.00;100386.44;5006189;28;20996;-81
2023/01/12 03:17:56;;;;;;;2.28;1.55;;;;;;;8.98;100.00;100373.66;5006931;28;20053;-85
2023/01/12 03:20:29;;;;;;;2.35;1.65;;;;;;;9.01;100.00;100357.38;5003850;28;20077;-85
2023/01/12 03:23:03;;;;;;;3.67;1.20;;;;;;;9.04;100.00;100346.28;5006539;28;20623;-84
2023/01/12 03:25:34;;;;;;;3.42;1.30;;;;;;;9.07;100.00;100346.34;5005564;28;20045;-83
2023/01/12 03:28:07;;;;;;;5.78;1.40;;;;;;;9.09;100.00;100358.47;5009367;28;20061;-83
2023/01/12 03:30:39;;;;;;;3.05;1.52;;;;;;;9.10;100.00;100354.19;4997775;28;20519;-81
2023/01/12 03:33:09;;;;;;;2.60;1.30;;;;;;;9.12;100.00;100366.31;5006276;28;20046;-83
2023/01/12 03:35:44;;;;;;;2.38;1.55;;;;;;;9.16;100.00;100382.75;5004940;28;20042;-81
2023/01/12 03:38:23;;;;;;;1.83;1.10;;;;;;;9.17;100.00;100385.38;5007464;28;20053;-83
2023/01/12 03:41:00;;;;;;;2.47;1.25;;;;;;;9.20;100.00;100389.75;5006364;28;20516;-84
2023/01/12 03:43:33;;;;;;;7.25;3.58;;;;;;;9.24;100.00;100396.78;5005623;28;20053;-84
2023/01/12 03:46:08;;;;;;;2.60;1.80;;;;;;;9.21;100.00;100397.56;5013163;28;20527;-84
2023/01/12 03:48:41;;;;;;;3.20;1.70;;;;;;;9.22;100.00;100382.94;5012492;28;20359;-85
2023/01/12 03:51:18;;;;;;;4.68;1.90;;;;;;;9.23;100.00;100371.75;5009253;28;20107;-85
2023/01/12 03:53:50;;;;;;;3.55;1.60;;;;;;;9.24;100.00;100376.13;5010794;28;20058;-87
2023/01/12 03:56:21;;;;;;;2.90;1.67;;;;;;;9.22;100.00;100372.59;5015280;28;20117;-83
2023/01/12 03:58:51;;;;;;;2.53;1.58;;;;;;;9.23;100.00;100353.69;5007428;28;20061;-85
2023/01/12 04:01:19;;;;;;;3.60;1.80;;;;;;;9.22;100.00;100359.69;5011461;28;20046;-84
2023/01/12 04:03:48;;;;;;;3.83;2.10;;;;;;;9.23;100.00;100354.59;5005361;28;20065;-86
2023/01/12 04:06:18;;;;;;;5.22;2.08;;;;;;;9.24;100.00;100365.78;5007950;28;20058;-87
2023/01/12 04:08:47;;;;;;;3.90;1.98;;;;;;;9.24;100.00;100376.13;5008380;28;20053;-85
2023/01/12 04:14:00;;;;;;;3.88;1.73;;;;;;;9.24;100.00;100383.84;5013041;28;20061;-87
2023/01/12 04:16:29;;;;;;;2.95;1.50;;;;;;;9.23;100.00;100393.31;5014404;28;20042;-85
2023/01/12 04:18:58;;;;;;;5.03;1.77;;;;;;;9.25;100.00;100384.72;5012434;28;20049;-85
2023/01/12 04:24:14;;;;;;;1.88;1.10;;;;;;;9.22;100.00;100394.13;5017774;28;20053;-86
2023/01/12 04:26:42;;;;;;;3.63;1.80;;;;;;;9.17;100.00;100381.94;5015942;28;20518;-83
2023/01/12 04:29:11;;;;;;;2.38;1.38;;;;;;;9.08;100.00;100368.75;5012514;28;20057;-84
2023/01/12 04:31:40;;;;;;;2.15;1.30;;;;;;;9.14;100.00;100374.97;5018429;28;20046;-87
2023/01/12 04:34:09;;;;;;;1.98;1.15;;;;;;;9.12;100.00;100368.03;5014592;28;20105;-86
2023/01/12 04:36:39;;;;;;;2.47;1.27;;;;;;;9.10;100.00;100359.38;5015873;28;20069;-86
2023/01/12 04:39:08;;;;;;;1.75;1.10;;;;;;;9.10;100.00;100377.44;5007538;28;20056;-85
2023/01/12 04:41:37;;;;;;;1.20;0.90;;;;;;;9.08;100.00;100373.94;5010881;28;20054;-86
2023/01/12 04:44:05;;;;;;;1.40;1.08;;;;;;;9.11;100.00;100379.16;5011083;28;20061;-82
2023/01/12 04:46:34;;;;;;;1.70;1.25;;;;;;;9.10;100.00;100387.75;5004578;28;20448;-85
2023/01/12 04:49:02;;;;;;;2.03;1.30;;;;;;;9.11;100.00;100412.72;5007607;28;20072;-83
2023/01/12 04:51:31;;;;;;;2.42;1.33;;;;;;;9.11;100.00;100420.47;5012114;28;20058;-83
2023/01/12 04:54:01;;;;;;;1.67;1.10;;;;;;;9.08;100.00;100415.22;5009377;28;20058;-76
2023/01/12 04:56:31;;;;;;;2.67;1.10;;;;;;;9.10;100.00;100410.97;5006182;28;20056;-81
2023/01/12 04:59:00;;;;;;;2.03;1.33;;;;;;;9.10;100.00;100423.88;5006265;28;20512;-84
2023/01/12 05:01:29;;;;;;;3.22;1.45;;;;;;;9.05;100.00;100415.09;5006778;28;20144;-78
2023/01/12 05:04:00;;;;;;;2.30;1.42;;;;;;;9.00;100.00;100397.81;5006387;28;20050;-82
2023/01/12 05:06:29;;;;;;;4.75;1.40;;;;;;;8.99;100.00;100413.22;5010690;28;20085;-79
2023/01/12 05:11:44;;;;;;;2.70;1.38;;;;;;;8.94;100.00;100428.56;5005922;28;20060;-81
2023/01/12 05:14:13;;;;;;;2.40;1.02;;;;;;;8.93;100.00;100437.16;5009164;28;20158;-78
2023/01/12 05:16:42;;;;;;;1.63;0.93;;;;;;;8.94;100.00;100454.38;5010673;28;20512;-81
2023/01/12 05:19:11;;;;;;;3.45;1.23;;;;;;;8.96;100.00;100475.94;5015621;28;20267;-83
2023/01/12 05:21:39;;;;;;;2.40;1.30;;;;;;;8.97;100.00;100480.25;5011974;28;20052;-80
2023/01/12 05:24:09;;;;;;;2.72;1.80;;;;;;;8.88;100.00;100456.75;5011168;28;20065;-84
2023/01/12 05:26:38;;;;;;;3.40;1.98;;;;;;;9.00;100.00;100443.34;5016998;28;20045;-85
2023/01/12 05:29:08;;;;;;;3.63;2.15;;;;;;;9.00;100.00;100457.16;5011513;28;20041;-84
2023/01/12 05:31:37;;;;;;;4.93;2.35;;;;;;;9.02;100.00;100460.66;5010493;28;20046;-82
2023/01/12 05:34:05;;;;;;;4.40;2.20;;;;;;;9.05;100.00;100456.41;5009175;28;20070;-85
2023/01/12 05:36:34;;;;;;;4.03;2.15;;;;;;;9.07;100.00;100454.75;5017025;28;20046;-85
2023/01/12 05:39:05;;;;;;;3.58;2.42;;;;;;;9.07;100.00;100452.16;5011730;28;20049;-85
2023/01/12 05:41:33;;;;;;;4.03;2.53;;;;;;;9.07;100.00;100465.06;5012062;28;20057;-83
2023/01/12 05:44:01;;;;;;;5.80;2.85;;;;;;;9.09;100.00;100469.44;5010409;28;20049;-83
2023/01/12 05:46:38;;;;;;;6.50;2.92;;;;;;;9.10;100.00;100476.38;5012450;28;20606;-83
2023/01/12 05:49:09;;;;;;;7.22;2.85;;;;;;;9.09;100.00;100473.75;5008735;28;20046;-82
2023/01/12 05:51:38;;;;;;;5.07;2.42;;;;;;;9.06;100.00;100458.16;5008319;28;20456;-84
2023/01/12 05:54:07;;;;;;;3.25;1.80;;;;;;;9.06;100.00;100460.75;5010543;28;20065;-83
2023/01/12 05:56:36;;;;;;;4.22;1.90;;;;;;;9.05;100.00;100464.16;5010584;28;20058;-77
2023/01/12 05:59:05;;;;;;;2.50;1.33;;;;;;;9.04;100.00;100457.25;5004467;28;20535;-80
2023/01/12 06:01:35;;;;;;;4.93;1.50;;;;;;;9.02;100.00;100437.44;5004803;28;20049;-82
2023/01/12 06:04:04;;;;;;;1.55;1.20;;;;;;;8.98;100.00;100447.63;5008836;28;20054;-83
2023/01/12 06:06:33;;;;;;;1.77;1.17;;;;;;;8.94;100.00;100453.50;5007358;28;20042;-79
2023/01/12 06:09:02;;;;;;;1.85;1.25;;;;;;;8.91;100.00;100458.56;5003712;28;20061;-82
2023/01/12 06:14:16;;;;;;;1.50;1.17;;;;;;;8.94;100.00;100454.38;5004635;28;20228;-81
2023/01/12 06:16:47;;;;;;;2.50;1.00;;;;;;;8.95;100.00;100450.09;5002096;28;20404;-77
2023/01/12 06:19:16;;;;;;;2.25;1.20;;;;;;;8.94;100.00;100453.50;5007089;28;20416;-78
2023/01/12 06:21:44;;;;;;;3.67;1.35;;;;;;;8.92;100.00;100466.34;5006550;28;20450;-77
2023/01/12 06:24:13;;;;;;;1.85;1.20;;;;;;;8.92;100.00;100453.44;5007635;28;20140;-76
2023/01/12 06:26:44;;;;;;;3.38;1.13;;;;;;;8.92;100.00;100453.44;5006434;28;20129;-77
2023/01/12 06:29:12;;;;;;;1.65;0.93;;;;;;;8.89;100.00;100455.06;5007829;28;20427;-77
2023/01/12 06:31:50;;;;;;;3.67;1.35;;;;;;;8.93;100.00;100462.97;5006777;28;20045;-77
2023/01/12 06:34:19;;;;;;;5.80;1.10;;;;;;;8.91;100.00;100438.81;5010524;28;20054;-79
2023/01/12 06:36:48;;;;;;;2.13;1.05;;;;;;;8.87;100.00;100434.38;5002399;28;20046;-79
2023/01/12 06:39:16;;;;;;;2.08;1.02;;;;;;;8.84;100.00;100442.00;5006222;28;20052;-77
2023/01/12 06:44:30;;;;;;;1.17;0.77;;;;;;;8.81;100.00;100426.44;5008480;28;20056;-77
2023/01/12 06:47:03;;;;;;;1.23;0.90;;;;;;;8.71;100.00;100398.63;5007365;28;20133;-76
2023/01/12 06:49:32;;;;;;;2.33;1.13;;;;;;;8.81;100.00;100400.63;5004980;28;20133;-77
2023/01/12 06:52:01;;;;;;;2.78;1.00;;;;;;;8.78;100.00;100416.03;5004843;28;20045;-77
2023/01/12 06:54:29;;;;;;;3.45;1.13;;;;;;;8.77;100.00;100415.16;5004468;28;20045;-76
2023/01/12 06:56:58;;;;;;;4.75;1.10;;;;;;;8.78;100.00;100405.72;5009670;28;20046;-76
2023/01/12 06:59:27;;;;;;;5.75;1.33;;;;;;;8.76;100.00;100389.31;5002501;28;20089;-76
2023/01/12 07:01:55;;;;;;;3.17;1.20;;;;;;;8.77;100.00;100370.41;5002798;28;20054;-76
2023/01/12 07:04:26;;;;;;;3.03;1.48;;;;;;;8.76;100.00;100358.34;5003937;28;20496;-76
2023/01/12 07:06:55;;;;;;;1.83;1.02;;;;;;;8.69;100.00;100353.84;4999636;28;20463;-77
2023/01/12 07:09:24;;;;;;;1.63;1.10;;;;;;;8.65;100.00;100341.66;5002618;28;20050;-76
2023/01/12 07:11:53;;;;;;;1.50;0.90;;;;;;;8.65;100.00;100326.19;5004353;28;20081;-76
2023/01/12 07:14:21;;;;;;;1.70;0.95;;;;;;;8.62;100.00;100315.81;5006564;28;20653;-76
2023/01/12 07:16:50;;;;;;;1.50;0.98;;;;;;;8.62;100.00;100316.66;5005033;28;20041;-74
2023/01/12 07:19:18;;;;;;;1.55;0.77;;;;;;;8.64;100.00;100314.16;5004479;28;20050;-76
2023/01/12 07:21:49;;;;;;;1.50;0.80;;;;;;;8.64;100.00;100321.88;5005820;28;20049;-75
2023/01/12 07:24:18;;;;;;;1.23;0.90;;;;;;;8.66;100.00;100334.00;5002482;28;20085;-75
2023/01/12 07:26:50;;;;;;;1.67;0.70;;;;;;;8.66;100.00;100322.78;5010496;28;20046;-76
2023/01/12 07:29:18;;;;;;;1.30;0.80;;;;;;;8.65;100.00;100341.66;5005234;28;20054;-76
2023/01/12 07:31:48;;;;;;;1.58;1.10;;;;;;;8.63;100.00;100345.91;5005699;28;20046;-77
2023/01/12 07:34:17;;;;;;;1.35;0.70;;;;;;;8.66;100.00;100370.09;5001602;28;20053;-77
2023/01/12 07:36:48;;;;;;;1.92;1.00;;;;;;;8.68;100.00;100371.03;5007877;28;20053;-74
2023/01/12 07:39:19;;;;;;;1.23;0.82;;;;;;;8.72;100.00;100343.59;5006966;28;20559;-76
2023/01/12 07:44:33;;;;;;;1.67;0.90;;;;;;;8.79;100.00;100307.72;5006500;28;20180;-75
2023/01/12 07:47:01;;;;;;;1.67;0.90;;;;;;;8.82;100.00;100314.69;5004058;28;20053;-77
2023/01/12 07:49:30;;;;;;;0.90;0.70;;;;;;;8.84;100.00;100328.47;4997583;28;20061;-76
2023/01/12 07:51:58;;;;;;;1.13;0.70;;;;;;;8.89;100.00;100331.22;5006015;28;20875;-76
2023/01/12 07:54:29;;;;;;;3.08;0.90;;;;;;;8.91;100.00;100350.19;5007099;28;20054;-75
2023/01/12 07:56:58;;;;;;;1.00;0.60;;;;;;;8.91;100.00;100357.94;5004901;28;20124;-76
2023/01/12 07:59:26;;;;;;;1.00;0.63;;;;;;;8.95;100.00;100363.22;5006575;28;20105;-76
2023/01/12 08:01:55;;;;;;;1.05;0.65;;;;;;;9.00;100.00;100361.69;5006818;28;20054;-76
2023/01/12 08:04:24;;;;;;;1.50;0.82;;;;;;;9.06;100.00;100354.94;5007433;28;20167;-76
2023/01/12 08:06:53;;;;;;;1.38;0.77;;;;;;;9.10;100.00;100367.97;5004262;28;20042;-76
2023/01/12 08:09:21;;;;;;;3.92;1.75;;;;;;;9.14;100.00;100379.25;5003702;28;20064;-76
2023/01/12 08:11:51;;;;;;;4.20;1.52;;;;;;;9.15;100.00;100381.00;5007865;28;20049;-76
2023/01/12 08:14:27;;;;;;;2.85;1.60;;;;;;;9.16;100.00;100390.50;5006620;28;20058;-76
2023/01/12 08:17:00;;;;;;;3.30;1.35;;;;;;;9.17;100.00;100402.59;5006242;28;20142;-76
2023/01/12 08:19:36;;;;;;;2.83;1.40;;;;;;;9.15;100.00;100394.78;5006070;28;20560;-77
2023/01/12 08:22:08;;;;;;;2.45;1.75;;;;;;;9.14;100.00;100405.06;5006129;28;20046;-76
2023/01/12 08:24:40;;;;;;;2.05;1.55;;;;;;;9.14;100.00;100374.97;5004439;28;20628;-76
2023/01/12 08:27:11;;;;;;;3.50;1.60;;;;;;;9.16;100.00;100377.59;5005669;28;20059;-76
2023/01/12 08:29:44;;;;;;;2.30;1.60;;;;;;;9.17;100.00;100381.94;5006206;28;20097;-76
2023/01/12 08:32:15;;;;;;;;;;;;;;;9.19;100.00;100375.13;5006826;28;20068;-75
2023/01/12 08:34:46;;;;;;;2.45;1.33;;;;;;;9.20;100.00;100369.09;5006153;28;20419;-75
2023/01/12 08:37:17;;;;;;;2.30;1.38;;;;;;;9.20;100.00;100359.66;5010046;28;20105;-75
2023/01/12 08:39:46;;;;;;;3.75;1.45;;;;;;;9.22;100.00;100376.06;5011228;28;20049;-76
2023/01/12 08:42:17;;;;;;;2.50;1.40;;;;;;;9.22;100.00;100373.47;5011059;28;20069;-75
2023/01/12 08:44:45;;;;;;;2.53;1.25;;;;;;;9.20;100.00;100351.91;5009619;28;20128;-76
2023/01/12 08:47:18;;;;;;;2.33;1.40;;;;;;;9.21;100.00;100364.00;5007595;28;20033;-76
2023/01/12 08:49:47;;;;;;;3.92;1.30;;;;;;;9.19;100.00;100370.81;5010526;28;20108;-75
2023/01/12 08:52:16;;;;;;;2.28;1.33;;;;;;;9.21;100.00;100360.56;5009138;28;20056;-76
2023/01/12 08:54:45;;;;;;;2.83;1.58;;;;;;;9.21;100.00;100350.22;5007573;28;20676;-76
2023/01/12 08:57:15;;;;;;;2.83;1.77;;;;;;;9.25;100.00;100357.19;5009659;28;20052;-77
2023/01/12 08:59:51;;;;;;;2.25;1.20;;;;;;;9.25;100.00;100361.50;5008639;28;20503;-76
2023/01/12 09:02:20;;;;;;;2.60;1.30;;;;;;;9.27;100.00;100365.00;5008741;28;20061;-76
2023/01/12 09:04:48;;;;;;;2.15;1.35;;;;;;;9.28;100.00;100367.63;5009814;28;20050;-76
2023/01/12 09:07:18;;;;;;;1.55;1.10;;;;;;;9.28;100.00;100372.78;5009067;28;20061;-76
2023/01/12 09:09:47;;;;;;;2.17;1.27;;;;;;;9.29;100.00;100374.53;5015316;28;20084;-76
2023/01/12 09:12:15;;;;;;;2.25;1.45;;;;;;;9.30;100.00;100376.31;5011817;28;20088;-77
2023/01/12 09:14:45;;;;;;;4.68;1.60;;;;;;;9.31;100.00;100378.03;5008103;28;20471;-75
2023/01/12 09:17:14;;;;;;;2.30;1.20;;;;;;;9.22;100.00;100363.16;5009543;28;20050;-76
2023/01/12 09:19:48;;;;;;;2.70;1.42;;;;;;;9.31;100.00;100374.59;5006868;28;20085;-76
2023/01/12 09:22:17;;;;;;;3.92;1.65;;;;;;;9.31;100.00;100377.16;5010042;28;20053;-76
2023/01/12 09:24:45;;;;;;;2.47;1.45;;;;;;;9.28;100.00;100383.13;5008497;28;20044;-76
2023/01/12 09:27:14;;;;;;;2.55;1.60;;;;;;;9.30;100.00;100373.72;5009878;28;20061;-76
2023/01/12 09:29:43;;;;;;;3.25;2.25;;;;;;;9.31;100.00;100370.28;5011505;28;20720;-76
2023/01/12 09:32:13;;;;;;;3.55;2.00;;;;;;;9.31;100.00;100372.88;5008742;28;20054;-76
2023/01/12 09:34:41;;;;;;;2.58;1.65;;;;;;;9.32;100.00;100363.41;5009263;28;20086;-76
2023/01/12 09:37:10;;;;;;;2.03;1.45;;;;;;;9.32;100.00;100364.31;5010673;28;20109;-76
2023/01/12 09:39:38;;;;;;;4.32;2.15;;;;;;;9.30;100.00;100365.06;5012260;28;20050;-76
2023/01/12 09:47:55;;;;;;;2.85;1.92;;;;;;;9.27;100.00;100345.22;5006331;28;20137;-76
2023/01/12 09:50:30;;;;;;;5.18;1.77;;;;;;;9.26;100.00;100348.63;5010150;28;20054;-77
2023/01/12 09:53:02;;;;;;;3.90;2.22;;;;;;;9.24;100.00;100360.63;5006000;28;20050;-77
2023/01/12 09:55:39;;;;;;;3.85;2.30;;;;;;;9.23;100.00;100357.19;5006143;28;20045;-77
2023/01/12 09:58:32;;;;;;;1.88;1.33;;;;;;;9.25;100.00;100357.19;5008588;28;20542;-76
2023/01/12 10:01:09;;;;;;;3.00;1.85;;;;;;;9.26;100.00;100358.97;5008228;28;20133;-77
2023/01/12 10:03:42;;;;;;;4.25;1.83;;;;;;;9.26;100.00;100361.53;5007247;28;20046;-77
2023/01/12 10:06:15;;;;;;;3.80;2.10;;;;;;;9.27;100.00;100354.66;5007610;28;20045;-77
2023/01/12 10:08:47;;;;;;;1.98;1.45;;;;;;;9.29;100.00;100355.59;5008614;28;20701;-76
2023/01/12 10:11:20;;;;;;;1.98;1.52;;;;;;;9.29;100.00;100359.03;5007021;28;20061;-76
2023/01/12 10:14:08;;;;;;;4.82;1.85;;;;;;;9.31;100.00;100370.28;5010349;28;20077;-75
2023/01/12 10:16:47;;;;;;;3.72;1.65;;;;;;;9.33;100.00;100370.34;5012186;28;20050;-77
2023/01/12 10:19:25;;;;;;;2.80;1.52;;;;;;;9.33;100.00;100371.22;5006699;28;20050;-76
2023/01/12 10:21:55;;;;;;;4.97;2.38;;;;;;;9.33;100.00;100365.19;5006903;28;20053;-76
2023/01/12 10:24:26;;;;;;;2.97;2.25;;;;;;;9.33;100.00;100353.13;5008108;28;20490;-76
2023/01/12 10:27:01;;;;;;;4.15;1.83;;;;;;;9.34;100.00;100346.25;5008385;28;20056;-76
2023/01/12 10:29:31;;;;;;;3.97;1.73;;;;;;;9.34;100.00;100341.97;4984730;28;20058;-76
2023/01/12 10:31:59;;;;;;;3.97;2.05;;;;;;;9.34;100.00;100343.69;4989178;28;20113;-76
2023/01/12 10:34:48;;;;;;;4.03;1.85;;;;;;;9.31;100.00;100344.47;4987755;28;20050;-75
2023/01/12 10:37:17;;;;;;;3.58;1.67;;;;;;;9.30;100.00;100354.75;4984403;28;20049;-76
2023/01/12 10:39:45;;;;;;;3.88;2.17;;;;;;;9.30;100.00;100349.59;4988356;28;20062;-76
2023/01/12 10:45:17;;;;;;;2.30;1.80;;;;;;;9.32;100.00;100379.81;4988947;28;20053;-76
2023/01/12 10:47:46;;;;;;;3.05;1.90;;;;;;;9.33;100.00;100381.53;4987965;28;20042;-77
2023/01/12 10:50:26;;;;;;;3.25;1.45;;;;;;;9.34;100.00;100388.44;4986908;28;20061;-77
2023/01/12 10:53:02;;;;;;;3.65;1.40;;;;;;;9.35;100.00;100387.63;4981306;28;20069;-76
2023/01/12 10:55:34;;;;;;;2.00;1.20;;;;;;;9.37;100.00;100372.19;4980313;28;20081;-76
2023/01/12 10:58:03;;;;;;;2.83;1.40;;;;;;;9.38;100.00;100379.97;4989461;28;20050;-76
2023/01/12 11:00:32;;;;;;;2.13;1.38;;;;;;;9.38;100.00;100379.09;4990470;28;20058;-76
2023/01/12 11:03:02;;;;;;;2.50;1.23;;;;;;;9.27;100.00;100381.34;4987955;28;20061;-76
2023/01/12 11:05:37;;;;;;;2.10;1.50;;;;;;;9.35;100.00;100391.91;4986221;28;20244;-77
2023/01/12 11:08:21;;;;;;;3.88;1.55;;;;;;;9.35;100.00;100400.53;4987440;28;20453;-77
2023/01/12 11:10:50;;;;;;;3.38;1.40;;;;;;;9.36;100.00;100415.19;4987057;28;20057;-77
2023/01/12 11:13:26;;;;;;;2.70;1.60;;;;;;;9.38;100.00;100436.75;4984843;28;20043;-76
2023/01/12 11:16:02;;;;;;;2.65;1.35;;;;;;;9.38;100.00;100431.59;4982703;28;20548;-75
2023/01/12 11:18:39;;;;;;;2.38;1.30;;;;;;;9.33;100.00;100422.84;4988245;28;20539;-76
2023/01/12 11:21:13;;;;;;;2.10;1.73;;;;;;;9.30;100.00;100420.19;4987162;28;20440;-76
2023/01/12 11:23:56;;;;;;;2.42;1.50;;;;;;;9.25;100.00;100429.47;4985799;28;20054;-75
2023/01/12 11:26:30;;;;;;;3.22;1.35;;;;;;;9.24;100.00;100438.06;4984513;28;20110;-76
2023/01/12 11:29:23;;;;;;;3.03;1.30;;;;;;;9.19;100.00;100430.19;5001377;28;20054;-74
2023/01/12 11:31:53;;;;;;;;;;;;;;;9.19;100.00;100429.31;5007636;28;20053;-76
2023/01/12 11:34:29;;;;;;;1.90;1.20;;;;;;;9.20;100.00;100439.69;5007569;28;19925;-76
2023/01/12 11:37:07;;;;;;;2.35;1.60;;;;;;;9.21;100.00;100438.88;5006457;28;20049;-76
2023/01/12 11:39:36;;;;;;;3.78;1.45;;;;;;;9.23;100.00;100431.13;5007205;28;20535;-75
2023/01/12 11:45:03;;;;;;;2.72;1.50;;;;;;;9.28;100.00;100419.28;5006306;28;20519;-75
2023/01/12 11:47:37;;;;;;;2.05;1.48;;;;;;;9.26;100.00;100425.22;5005698;28;20053;-76
2023/01/12 11:50:12;;;;;;;2.40;1.48;;;;;;;9.25;100.00;100428.63;5007382;28;20045;-76
2023/01/12 11:52:42;;;;;;;1.80;1.40;;;;;;;9.27;100.00;100416.63;5006502;28;20471;-76
2023/01/12 11:55:16;;;;;;;3.03;1.73;;;;;;;9.27;100.00;100414.91;5007061;28;20499;-76
2023/01/12 11:57:59;;;;;;;2.72;1.45;;;;;;;9.28;100.00;100408.03;5005812;28;20545;-76
2023/01/12 12:00:43;;;;;;;3.30;1.23;;;;;;;9.20;100.00;100402.66;5006734;28;20074;-76
2023/01/12 12:03:40;;;;;;;1.58;1.00;;;;;;;9.22;100.00;100398.44;5006771;28;20066;-77
2023/01/12 12:06:30;;;;;;;1.98;1.40;;;;;;;9.25;100.00;100392.47;5004687;28;20053;-76
2023/01/12 12:09:11;;;;;;;2.20;1.30;;;;;;;9.26;100.00;100399.41;5008175;28;20049;-76
2023/01/12 12:11:45;;;;;;;1.73;1.10;;;;;;;9.26;100.00;100395.09;5010520;28;20050;-76
2023/01/12 12:14:27;;;;;;;3.95;1.40;;;;;;;9.27;100.00;100407.16;5010156;28;20134;-77
2023/01/12 12:17:06;;;;;;;2.40;1.33;;;;;;;9.29;100.00;100413.25;5009838;28;20053;-76
2023/01/12 12:19:43;;;;;;;2.05;1.30;;;;;;;9.32;100.00;100413.38;5013893;28;20062;-77
2023/01/12 12:22:24;;;;;;;3.80;1.33;;;;;;;9.33;100.00;100409.94;5011092;28;20046;-77
2023/01/12 12:25:16;;;;;;;2.92;1.30;;;;;;;9.35;100.00;100413.44;5007550;28;20049;-76
2023/01/12 12:28:00;;;;;;;2.13;1.20;;;;;;;9.37;100.00;100413.50;5008750;28;20113;-76
2023/01/12 12:30:44;;;;;;;2.22;1.10;;;;;;;9.36;100.00;100411.72;5010378;28;20891;-76
2023/01/12 12:33:27;;;;;;;1.40;1.10;;;;;;;9.36;100.00;100410.03;5009188;28;20042;-75